EWG1GD LFBD-EDDL
Flight info
| Callsign | EWG1GD |
|---|---|
| Flight time | 1h 22m |
| Altitude | 34000 |
| Route | CNA DCT ADABI DCT BOKNO/N0446F360 UN858 VANAD UN874 PIWIZ DCT TSU UN858 OQQAL DCT RANUX/N0445F350 DCT VALEK DCT LUTAX DCT DIK/N0397F230 N853 ARCKY T853 NVO T857 BIKMU BIKMU1A |
| Aircraft | A320/M-SDE3FGHIRWY/LB1 |
Departure
| Time | 2026-05-07 08:41 |
|---|---|
| Airport | Bordeaux–Mérignac Airport (LFBD) |
Arrival
| Time | 2026-05-07 10:04 |
|---|---|
| Airport | Düsseldorf Airport (EDDL) |
| Time | Latitude | Longitude | Altitude | Speed | Heading |
|---|---|---|---|---|---|
| 2026-05-07 08:27 | 44.83167 | -0.70420 | 167 ft | 0 kts | 161° |
| 2026-05-07 08:34 | 44.83183 | -0.70428 | 167 ft | 4 kts | 158° |
| 2026-05-07 08:34 | 44.83207 | -0.70445 | 167 ft | 4 kts | 136° |
| 2026-05-07 08:34 | 44.83217 | -0.70466 | 167 ft | 4 kts | 57° |
| 2026-05-07 08:34 | 44.83215 | -0.70471 | 167 ft | 0 kts | 45° |
| 2026-05-07 08:36 | 44.83222 | -0.70461 | 167 ft | 3 kts | 46° |
| 2026-05-07 08:37 | 44.83251 | -0.70419 | 166 ft | 9 kts | 46° |
| 2026-05-07 08:37 | 44.83308 | -0.70338 | 165 ft | 13 kts | 44° |
| 2026-05-07 08:37 | 44.83378 | -0.70330 | 165 ft | 12 kts | 347° |
| 2026-05-07 08:37 | 44.83451 | -0.70249 | 164 ft | 17 kts | 47° |
| 2026-05-07 08:38 | 44.83542 | -0.70120 | 163 ft | 20 kts | 45° |
| 2026-05-07 08:38 | 44.83620 | -0.70015 | 162 ft | 13 kts | 34° |
| 2026-05-07 08:38 | 44.83705 | -0.70032 | 161 ft | 15 kts | 335° |
| 2026-05-07 08:38 | 44.83801 | -0.70110 | 161 ft | 15 kts | 314° |
| 2026-05-07 08:39 | 44.83797 | -0.70206 | 161 ft | 0 kts | 223° |
| 2026-05-07 08:40 | 44.83797 | -0.70207 | 161 ft | 1 kts | 223° |
| 2026-05-07 08:41 | 44.83676 | -0.70377 | 162 ft | 63 kts | 225° |
| 2026-05-07 08:41 | 44.83206 | -0.71048 | 170 ft | 129 kts | 225° |
| 2026-05-07 08:41 | 44.82466 | -0.72100 | 390 ft | 159 kts | 224° |
| 2026-05-07 08:41 | 44.81679 | -0.73167 | 1119 ft | 157 kts | 225° |
| 2026-05-07 08:42 | 44.80893 | -0.74293 | 1736 ft | 170 kts | 225° |
| 2026-05-07 08:42 | 44.80013 | -0.75563 | 2147 ft | 192 kts | 225° |
| 2026-05-07 08:42 | 44.79018 | -0.77000 | 2526 ft | 218 kts | 226° |
| 2026-05-07 08:42 | 44.78229 | -0.78925 | 2985 ft | 243 kts | 259° |
| 2026-05-07 08:43 | 44.78449 | -0.81341 | 3546 ft | 261 kts | 298° |
| 2026-05-07 08:43 | 44.79709 | -0.83172 | 4438 ft | 267 kts | 331° |
| 2026-05-07 08:43 | 44.81458 | -0.84051 | 5440 ft | 270 kts | 352° |
| 2026-05-07 08:43 | 44.83327 | -0.83861 | 6424 ft | 274 kts | 17° |
| 2026-05-07 08:44 | 44.85082 | -0.82843 | 7330 ft | 278 kts | 23° |
| 2026-05-07 08:44 | 44.86864 | -0.81723 | 8221 ft | 283 kts | 23° |
| 2026-05-07 08:44 | 44.88675 | -0.80569 | 9123 ft | 288 kts | 22° |
| 2026-05-07 08:44 | 44.90524 | -0.79391 | 10000 ft | 294 kts | 22° |
| 2026-05-07 08:45 | 44.92436 | -0.78177 | 10479 ft | 313 kts | 22° |
| 2026-05-07 08:45 | 44.94499 | -0.76873 | 10782 ft | 337 kts | 23° |
| 2026-05-07 08:45 | 44.96713 | -0.75476 | 11022 ft | 360 kts | 23° |
| 2026-05-07 08:45 | 44.99040 | -0.74001 | 11560 ft | 371 kts | 23° |
| 2026-05-07 08:46 | 45.01379 | -0.72516 | 12264 ft | 376 kts | 24° |
| 2026-05-07 08:46 | 45.03776 | -0.70997 | 13004 ft | 380 kts | 24° |
| 2026-05-07 08:46 | 45.06205 | -0.69461 | 13748 ft | 384 kts | 24° |
| 2026-05-07 08:46 | 45.08659 | -0.67908 | 14403 ft | 388 kts | 24° |
| 2026-05-07 08:47 | 45.11136 | -0.66339 | 15046 ft | 392 kts | 24° |
| 2026-05-07 08:47 | 45.13644 | -0.64747 | 15693 ft | 396 kts | 24° |
| 2026-05-07 08:47 | 45.16170 | -0.63141 | 16339 ft | 400 kts | 24° |
| 2026-05-07 08:47 | 45.18722 | -0.61515 | 16975 ft | 404 kts | 24° |
| 2026-05-07 08:48 | 45.21299 | -0.59875 | 17636 ft | 408 kts | 24° |
| 2026-05-07 08:48 | 45.23894 | -0.58223 | 18285 ft | 411 kts | 24° |
| 2026-05-07 08:48 | 45.26480 | -0.56568 | 18829 ft | 415 kts | 24° |
| 2026-05-07 08:48 | 45.29123 | -0.54872 | 19359 ft | 419 kts | 24° |
| 2026-05-07 08:49 | 45.31789 | -0.53165 | 19879 ft | 422 kts | 24° |
| 2026-05-07 08:49 | 45.34481 | -0.51447 | 20395 ft | 426 kts | 24° |
| 2026-05-07 08:49 | 45.37195 | -0.49717 | 20896 ft | 429 kts | 24° |
| 2026-05-07 08:49 | 45.39932 | -0.47969 | 21382 ft | 433 kts | 24° |
| 2026-05-07 08:50 | 45.42686 | -0.46203 | 21857 ft | 436 kts | 24° |
| 2026-05-07 08:50 | 45.45460 | -0.44416 | 22316 ft | 439 kts | 24° |
| 2026-05-07 08:50 | 45.48218 | -0.42638 | 22758 ft | 443 kts | 24° |
| 2026-05-07 08:50 | 45.51034 | -0.40822 | 23184 ft | 446 kts | 24° |
| 2026-05-07 08:51 | 45.53869 | -0.38994 | 23602 ft | 449 kts | 24° |
| 2026-05-07 08:51 | 45.56724 | -0.37152 | 23954 ft | 452 kts | 24° |
| 2026-05-07 08:51 | 45.59595 | -0.35297 | 24323 ft | 454 kts | 24° |
| 2026-05-07 08:51 | 45.62479 | -0.33428 | 24689 ft | 456 kts | 24° |
| 2026-05-07 08:52 | 45.65370 | -0.31524 | 25037 ft | 458 kts | 26° |
| 2026-05-07 08:52 | 45.68125 | -0.29204 | 25370 ft | 461 kts | 32° |
| 2026-05-07 08:52 | 45.70830 | -0.26719 | 25697 ft | 463 kts | 32° |
| 2026-05-07 08:52 | 45.73549 | -0.24221 | 26019 ft | 465 kts | 32° |
| 2026-05-07 08:53 | 45.76240 | -0.21741 | 26326 ft | 467 kts | 32° |
| 2026-05-07 08:53 | 45.78979 | -0.19208 | 26635 ft | 469 kts | 32° |
| 2026-05-07 08:53 | 45.81725 | -0.16668 | 26935 ft | 471 kts | 32° |
| 2026-05-07 08:53 | 45.84487 | -0.14118 | 27218 ft | 473 kts | 32° |
| 2026-05-07 08:54 | 45.87257 | -0.11560 | 27490 ft | 475 kts | 32° |
| 2026-05-07 08:54 | 45.90037 | -0.08991 | 27753 ft | 476 kts | 32° |
| 2026-05-07 08:54 | 45.92828 | -0.06408 | 27996 ft | 478 kts | 32° |
| 2026-05-07 08:54 | 45.95621 | -0.03822 | 28220 ft | 479 kts | 32° |
| 2026-05-07 08:55 | 45.98431 | -0.01218 | 28459 ft | 480 kts | 32° |
| 2026-05-07 08:55 | 46.01194 | 0.01349 | 28775 ft | 478 kts | 32° |
| 2026-05-07 08:55 | 46.03983 | 0.03946 | 29103 ft | 477 kts | 32° |
| 2026-05-07 08:55 | 46.06767 | 0.06541 | 29429 ft | 477 kts | 32° |
| 2026-05-07 08:56 | 46.09547 | 0.09139 | 29737 ft | 476 kts | 32° |
| 2026-05-07 08:56 | 46.12325 | 0.11735 | 30053 ft | 475 kts | 32° |
| 2026-05-07 08:56 | 46.15099 | 0.14329 | 30321 ft | 475 kts | 32° |
| 2026-05-07 08:56 | 46.17867 | 0.16920 | 30583 ft | 474 kts | 32° |
| 2026-05-07 08:57 | 46.20631 | 0.19512 | 30841 ft | 474 kts | 32° |
| 2026-05-07 08:57 | 46.23394 | 0.22108 | 31104 ft | 473 kts | 32° |
| 2026-05-07 08:57 | 46.26113 | 0.24667 | 31360 ft | 473 kts | 32° |
| 2026-05-07 08:57 | 46.28867 | 0.27260 | 31621 ft | 472 kts | 32° |
| 2026-05-07 08:58 | 46.31619 | 0.29850 | 31887 ft | 472 kts | 32° |
| 2026-05-07 08:58 | 46.34369 | 0.32444 | 32164 ft | 471 kts | 32° |
| 2026-05-07 08:58 | 46.37114 | 0.35039 | 32444 ft | 471 kts | 32° |
| 2026-05-07 08:58 | 46.39853 | 0.37633 | 32719 ft | 470 kts | 32° |
| 2026-05-07 08:59 | 46.42593 | 0.40228 | 33007 ft | 470 kts | 32° |
| 2026-05-07 08:59 | 46.45327 | 0.42819 | 33284 ft | 469 kts | 32° |
| 2026-05-07 08:59 | 46.48058 | 0.45415 | 33554 ft | 469 kts | 32° |
| 2026-05-07 08:59 | 46.50749 | 0.47977 | 33817 ft | 469 kts | 32° |
| 2026-05-07 09:00 | 46.53482 | 0.50559 | 34012 ft | 469 kts | 30° |
| 2026-05-07 09:00 | 46.56376 | 0.52714 | 34051 ft | 467 kts | 20° |
| 2026-05-07 09:00 | 46.62601 | 0.55211 | 34049 ft | 464 kts | 10° |
| 2026-05-07 09:01 | 46.68901 | 0.57254 | 34046 ft | 464 kts | 11° |
| 2026-05-07 09:01 | 46.75155 | 0.59330 | 34043 ft | 464 kts | 11° |
| 2026-05-07 09:02 | 46.81444 | 0.61434 | 34041 ft | 464 kts | 11° |
| 2026-05-07 09:02 | 46.87743 | 0.63525 | 34039 ft | 464 kts | 11° |
| 2026-05-07 09:03 | 46.94043 | 0.65606 | 34041 ft | 464 kts | 11° |
| 2026-05-07 09:03 | 47.00343 | 0.67703 | 34048 ft | 464 kts | 11° |
| 2026-05-07 09:04 | 47.06633 | 0.69386 | 34050 ft | 461 kts | 2° |
| 2026-05-07 09:04 | 47.13029 | 0.70059 | 34052 ft | 461 kts | 2° |
| 2026-05-07 09:05 | 47.18348 | 0.70607 | 34058 ft | 461 kts | 2° |
| 2026-05-07 09:05 | 47.24774 | 0.71244 | 34028 ft | 464 kts | 2° |
| 2026-05-07 09:06 | 47.32282 | 0.72027 | 34028 ft | 466 kts | 2° |
| 2026-05-07 09:06 | 47.37708 | 0.72612 | 34031 ft | 467 kts | 2° |
| 2026-05-07 09:07 | 47.44199 | 0.73297 | 34043 ft | 468 kts | 2° |
| 2026-05-07 09:07 | 47.50623 | 0.74460 | 34044 ft | 470 kts | 13° |
| 2026-05-07 09:08 | 47.56859 | 0.77443 | 34046 ft | 472 kts | 17° |
| 2026-05-07 09:08 | 47.63084 | 0.80517 | 34062 ft | 472 kts | 17° |
| 2026-05-07 09:09 | 47.69311 | 0.83592 | 34068 ft | 472 kts | 17° |
| 2026-05-07 09:09 | 47.75542 | 0.86662 | 34066 ft | 471 kts | 17° |
| 2026-05-07 09:10 | 47.81718 | 0.89724 | 34079 ft | 471 kts | 17° |
| 2026-05-07 09:10 | 47.87925 | 0.92819 | 34078 ft | 470 kts | 17° |
| 2026-05-07 09:11 | 47.94119 | 0.95950 | 34078 ft | 470 kts | 17° |
| 2026-05-07 09:11 | 48.00312 | 0.99103 | 34080 ft | 470 kts | 17° |
| 2026-05-07 09:12 | 48.06498 | 1.02251 | 34086 ft | 470 kts | 17° |
| 2026-05-07 09:12 | 48.12684 | 1.05403 | 34084 ft | 470 kts | 17° |
| 2026-05-07 09:13 | 48.18744 | 1.08861 | 34078 ft | 471 kts | 26° |
| 2026-05-07 09:13 | 48.24006 | 1.14700 | 34089 ft | 473 kts | 45° |
| 2026-05-07 09:14 | 48.28243 | 1.22273 | 34076 ft | 473 kts | 50° |
| 2026-05-07 09:14 | 48.32418 | 1.29924 | 34073 ft | 473 kts | 50° |
| 2026-05-07 09:15 | 48.36584 | 1.37585 | 34073 ft | 473 kts | 50° |
| 2026-05-07 09:15 | 48.40709 | 1.45221 | 34076 ft | 473 kts | 50° |
| 2026-05-07 09:16 | 48.44853 | 1.52926 | 34087 ft | 473 kts | 50° |
| 2026-05-07 09:16 | 48.48994 | 1.60640 | 34075 ft | 473 kts | 50° |
| 2026-05-07 09:17 | 48.53135 | 1.68361 | 34077 ft | 474 kts | 50° |
| 2026-05-07 09:17 | 48.57272 | 1.76093 | 34066 ft | 474 kts | 50° |
| 2026-05-07 09:18 | 48.61407 | 1.83841 | 34070 ft | 474 kts | 50° |
| 2026-05-07 09:18 | 48.65502 | 1.91552 | 34070 ft | 474 kts | 50° |
| 2026-05-07 09:19 | 48.69618 | 1.99335 | 34069 ft | 473 kts | 50° |
| 2026-05-07 09:19 | 48.73664 | 2.07194 | 34064 ft | 474 kts | 56° |
| 2026-05-07 09:20 | 48.76457 | 2.16218 | 34062 ft | 475 kts | 73° |
| 2026-05-07 09:20 | 48.78200 | 2.25893 | 34063 ft | 475 kts | 74° |
| 2026-05-07 09:21 | 48.79947 | 2.35563 | 34092 ft | 476 kts | 74° |
| 2026-05-07 09:21 | 48.81680 | 2.45243 | 34093 ft | 476 kts | 74° |
| 2026-05-07 09:22 | 48.83393 | 2.54879 | 34089 ft | 476 kts | 75° |
| 2026-05-07 09:22 | 48.85103 | 2.64571 | 34090 ft | 475 kts | 75° |
| 2026-05-07 09:23 | 48.86800 | 2.74259 | 34086 ft | 475 kts | 75° |
| 2026-05-07 09:23 | 48.88494 | 2.83942 | 34075 ft | 474 kts | 75° |
| 2026-05-07 09:24 | 48.90184 | 2.93623 | 34071 ft | 473 kts | 75° |
| 2026-05-07 09:24 | 48.91822 | 3.03124 | 34065 ft | 473 kts | 75° |
| 2026-05-07 09:25 | 48.93483 | 3.12806 | 34070 ft | 473 kts | 75° |
| 2026-05-07 09:25 | 48.95118 | 3.22365 | 34064 ft | 473 kts | 75° |
| 2026-05-07 09:26 | 48.96768 | 3.32070 | 34062 ft | 473 kts | 75° |
| 2026-05-07 09:26 | 48.98409 | 3.41778 | 34061 ft | 474 kts | 75° |
| 2026-05-07 09:27 | 49.00023 | 3.51427 | 34064 ft | 474 kts | 75° |
| 2026-05-07 09:28 | 49.02455 | 3.66003 | 34074 ft | 473 kts | 75° |
| 2026-05-07 09:28 | 49.04064 | 3.75716 | 34074 ft | 473 kts | 75° |
| 2026-05-07 09:29 | 49.05665 | 3.85426 | 34066 ft | 472 kts | 75° |
| 2026-05-07 09:29 | 49.07262 | 3.95142 | 34065 ft | 472 kts | 75° |
| 2026-05-07 09:30 | 49.08845 | 4.04796 | 34064 ft | 472 kts | 75° |
| 2026-05-07 09:30 | 49.10420 | 4.14515 | 34062 ft | 472 kts | 75° |
| 2026-05-07 09:31 | 49.11982 | 4.24249 | 34063 ft | 472 kts | 75° |
| 2026-05-07 09:31 | 49.13539 | 4.33992 | 34063 ft | 472 kts | 74° |
| 2026-05-07 09:32 | 49.15840 | 4.43346 | 34068 ft | 471 kts | 66° |
| 2026-05-07 09:32 | 49.18337 | 4.52513 | 34070 ft | 470 kts | 66° |
| 2026-05-07 09:33 | 49.20824 | 4.61736 | 34068 ft | 469 kts | 66° |
| 2026-05-07 09:33 | 49.23308 | 4.70982 | 34074 ft | 469 kts | 66° |
| 2026-05-07 09:34 | 49.25782 | 4.80216 | 34072 ft | 469 kts | 66° |
| 2026-05-07 09:34 | 49.28252 | 4.89451 | 34074 ft | 469 kts | 66° |
| 2026-05-07 09:35 | 49.30693 | 4.98634 | 34063 ft | 469 kts | 66° |
| 2026-05-07 09:35 | 49.33141 | 5.07890 | 34061 ft | 468 kts | 67° |
| 2026-05-07 09:36 | 49.35583 | 5.17151 | 34063 ft | 468 kts | 67° |
| 2026-05-07 09:36 | 49.38022 | 5.26417 | 34061 ft | 468 kts | 67° |
| 2026-05-07 09:37 | 49.40446 | 5.35695 | 34068 ft | 468 kts | 67° |
| 2026-05-07 09:37 | 49.42850 | 5.44921 | 34047 ft | 469 kts | 67° |
| 2026-05-07 09:38 | 49.45266 | 5.54235 | 34053 ft | 469 kts | 67° |
| 2026-05-07 09:38 | 49.47669 | 5.63543 | 34045 ft | 469 kts | 67° |
| 2026-05-07 09:39 | 49.50281 | 5.72718 | 34052 ft | 468 kts | 58° |
| 2026-05-07 09:39 | 49.54318 | 5.80430 | 34043 ft | 465 kts | 40° |
| 2026-05-07 09:40 | 49.59573 | 5.86188 | 34050 ft | 463 kts | 31° |
| 2026-05-07 09:40 | 49.62223 | 5.88826 | 34046 ft | 446 kts | 32° |
| 2026-05-07 09:40 | 49.64760 | 5.91380 | 33914 ft | 430 kts | 32° |
| 2026-05-07 09:40 | 49.67228 | 5.93875 | 33368 ft | 425 kts | 32° |
| 2026-05-07 09:41 | 49.69734 | 5.96407 | 32581 ft | 438 kts | 32° |
| 2026-05-07 09:41 | 49.72330 | 5.99028 | 32160 ft | 452 kts | 32° |
| 2026-05-07 09:41 | 49.74964 | 6.01684 | 31638 ft | 454 kts | 32° |
| 2026-05-07 09:41 | 49.77604 | 6.04315 | 31119 ft | 451 kts | 29° |
| 2026-05-07 09:42 | 49.80497 | 6.06238 | 30793 ft | 450 kts | 16° |
| 2026-05-07 09:42 | 49.83516 | 6.07641 | 30544 ft | 460 kts | 16° |
| 2026-05-07 09:42 | 49.86586 | 6.09059 | 30295 ft | 462 kts | 16° |
| 2026-05-07 09:42 | 49.89654 | 6.10466 | 30038 ft | 462 kts | 15° |
| 2026-05-07 09:43 | 49.92753 | 6.11881 | 29732 ft | 460 kts | 15° |
| 2026-05-07 09:43 | 49.95814 | 6.13280 | 29445 ft | 458 kts | 15° |
| 2026-05-07 09:43 | 49.98846 | 6.14668 | 29155 ft | 457 kts | 15° |
| 2026-05-07 09:43 | 50.01880 | 6.16062 | 28863 ft | 455 kts | 15° |
| 2026-05-07 09:44 | 50.04917 | 6.17461 | 28600 ft | 453 kts | 15° |
| 2026-05-07 09:44 | 50.07917 | 6.18848 | 28321 ft | 452 kts | 15° |
| 2026-05-07 09:44 | 50.10908 | 6.20227 | 28044 ft | 450 kts | 15° |
| 2026-05-07 09:44 | 50.13905 | 6.21609 | 27773 ft | 449 kts | 15° |
| 2026-05-07 09:45 | 50.16916 | 6.23000 | 27508 ft | 447 kts | 15° |
| 2026-05-07 09:45 | 50.19881 | 6.24367 | 27237 ft | 446 kts | 15° |
| 2026-05-07 09:45 | 50.22860 | 6.25745 | 26949 ft | 444 kts | 15° |
| 2026-05-07 09:45 | 50.25805 | 6.27113 | 26697 ft | 443 kts | 15° |
| 2026-05-07 09:46 | 50.28749 | 6.28481 | 26432 ft | 442 kts | 15° |
| 2026-05-07 09:46 | 50.31671 | 6.29840 | 26181 ft | 443 kts | 15° |
| 2026-05-07 09:46 | 50.34675 | 6.31241 | 25925 ft | 460 kts | 15° |
| 2026-05-07 09:46 | 50.37805 | 6.32707 | 25672 ft | 469 kts | 15° |
| 2026-05-07 09:47 | 50.40923 | 6.34167 | 25419 ft | 471 kts | 15° |
| 2026-05-07 09:47 | 50.44053 | 6.35634 | 25175 ft | 470 kts | 15° |
| 2026-05-07 09:47 | 50.47204 | 6.37112 | 24822 ft | 469 kts | 15° |
| 2026-05-07 09:47 | 50.50334 | 6.38586 | 24222 ft | 475 kts | 15° |
| 2026-05-07 09:48 | 50.53480 | 6.40065 | 23646 ft | 476 kts | 15° |
| 2026-05-07 09:48 | 50.56672 | 6.41565 | 22952 ft | 473 kts | 15° |
| 2026-05-07 09:48 | 50.59784 | 6.43034 | 22274 ft | 469 kts | 15° |
| 2026-05-07 09:48 | 50.62877 | 6.44497 | 21617 ft | 464 kts | 15° |
| 2026-05-07 09:49 | 50.65947 | 6.45951 | 20966 ft | 459 kts | 16° |
| 2026-05-07 09:49 | 50.69014 | 6.47403 | 20281 ft | 454 kts | 15° |
| 2026-05-07 09:49 | 50.72008 | 6.48820 | 19558 ft | 450 kts | 15° |
| 2026-05-07 09:49 | 50.74980 | 6.50225 | 18832 ft | 445 kts | 15° |
| 2026-05-07 09:50 | 50.77929 | 6.51619 | 18086 ft | 441 kts | 16° |
| 2026-05-07 09:50 | 50.80860 | 6.53008 | 17276 ft | 436 kts | 15° |
| 2026-05-07 09:50 | 50.83739 | 6.54383 | 16491 ft | 431 kts | 16° |
| 2026-05-07 09:50 | 50.86576 | 6.55738 | 15726 ft | 426 kts | 15° |
| 2026-05-07 09:51 | 50.89404 | 6.57092 | 14958 ft | 412 kts | 15° |
| 2026-05-07 09:51 | 50.92071 | 6.58371 | 14235 ft | 391 kts | 15° |
| 2026-05-07 09:51 | 50.94602 | 6.59587 | 13478 ft | 373 kts | 15° |
| 2026-05-07 09:51 | 50.97019 | 6.60750 | 12688 ft | 358 kts | 15° |
| 2026-05-07 09:52 | 50.99373 | 6.61881 | 11907 ft | 344 kts | 16° |
| 2026-05-07 09:52 | 51.01616 | 6.62956 | 11153 ft | 333 kts | 16° |
| 2026-05-07 09:52 | 51.03793 | 6.64000 | 10414 ft | 323 kts | 17° |
| 2026-05-07 09:52 | 51.05934 | 6.65031 | 9652 ft | 315 kts | 16° |
| 2026-05-07 09:53 | 51.07971 | 6.66044 | 9270 ft | 295 kts | 20° |
| 2026-05-07 09:53 | 51.09768 | 6.67382 | 9244 ft | 284 kts | 30° |
| 2026-05-07 09:53 | 51.11365 | 6.69159 | 9216 ft | 281 kts | 39° |
| 2026-05-07 09:53 | 51.12758 | 6.71366 | 9172 ft | 281 kts | 49° |
| 2026-05-07 09:54 | 51.14012 | 6.73720 | 8790 ft | 281 kts | 49° |
| 2026-05-07 09:54 | 51.15276 | 6.76107 | 8400 ft | 278 kts | 48° |
| 2026-05-07 09:54 | 51.16509 | 6.78440 | 8013 ft | 275 kts | 48° |
| 2026-05-07 09:54 | 51.17728 | 6.80746 | 7636 ft | 272 kts | 48° |
| 2026-05-07 09:55 | 51.18938 | 6.83046 | 7255 ft | 270 kts | 48° |
| 2026-05-07 09:55 | 51.20144 | 6.85343 | 6880 ft | 267 kts | 48° |
| 2026-05-07 09:55 | 51.21332 | 6.87602 | 6511 ft | 265 kts | 48° |
| 2026-05-07 09:55 | 51.22507 | 6.89835 | 6115 ft | 263 kts | 49° |
| 2026-05-07 09:56 | 51.23666 | 6.92040 | 5733 ft | 260 kts | 49° |
| 2026-05-07 09:56 | 51.24825 | 6.94245 | 5441 ft | 253 kts | 48° |
| 2026-05-07 09:56 | 51.25934 | 6.96352 | 5182 ft | 246 kts | 48° |
| 2026-05-07 09:56 | 51.27013 | 6.98401 | 4932 ft | 239 kts | 48° |
| 2026-05-07 09:57 | 51.28062 | 7.00393 | 4671 ft | 232 kts | 48° |
| 2026-05-07 09:57 | 51.29095 | 7.02359 | 4405 ft | 226 kts | 48° |
| 2026-05-07 09:57 | 51.30089 | 7.04255 | 4146 ft | 221 kts | 48° |
| 2026-05-07 09:57 | 51.31059 | 7.06109 | 3888 ft | 216 kts | 48° |
| 2026-05-07 09:58 | 51.32098 | 7.07814 | 3633 ft | 209 kts | 32° |
| 2026-05-07 09:58 | 51.33396 | 7.08623 | 3500 ft | 199 kts | 6° |
| 2026-05-07 09:58 | 51.34748 | 7.08391 | 3502 ft | 198 kts | 340° |
| 2026-05-07 09:58 | 51.35894 | 7.07190 | 3504 ft | 201 kts | 316° |
| 2026-05-07 09:59 | 51.36857 | 7.05552 | 3506 ft | 203 kts | 315° |
| 2026-05-07 09:59 | 51.37832 | 7.03894 | 3504 ft | 204 kts | 315° |
| 2026-05-07 09:59 | 51.38793 | 7.02239 | 3442 ft | 204 kts | 311° |
| 2026-05-07 09:59 | 51.39297 | 7.00148 | 3386 ft | 209 kts | 271° |
| 2026-05-07 10:00 | 51.38809 | 6.97992 | 3222 ft | 213 kts | 235° |
| 2026-05-07 10:00 | 51.37897 | 6.96103 | 2952 ft | 212 kts | 233° |
| 2026-05-07 10:00 | 51.37000 | 6.94243 | 2690 ft | 210 kts | 234° |
| 2026-05-07 10:00 | 51.36133 | 6.92418 | 2397 ft | 205 kts | 234° |
| 2026-05-07 10:01 | 51.35286 | 6.90631 | 2100 ft | 198 kts | 235° |
| 2026-05-07 10:01 | 51.34496 | 6.88965 | 1842 ft | 181 kts | 236° |
| 2026-05-07 10:01 | 51.33785 | 6.87466 | 1622 ft | 160 kts | 235° |
| 2026-05-07 10:01 | 51.33140 | 6.86105 | 1398 ft | 146 kts | 236° |
| 2026-05-07 10:02 | 51.32548 | 6.84854 | 1203 ft | 139 kts | 235° |
| 2026-05-07 10:02 | 51.31971 | 6.83638 | 1012 ft | 137 kts | 236° |
| 2026-05-07 10:02 | 51.31399 | 6.82430 | 828 ft | 135 kts | 235° |
| 2026-05-07 10:02 | 51.30838 | 6.81250 | 648 ft | 133 kts | 234° |
| 2026-05-07 10:03 | 51.30296 | 6.80110 | 479 ft | 133 kts | 234° |
| 2026-05-07 10:03 | 51.29815 | 6.79104 | 326 ft | 132 kts | 234° |
| 2026-05-07 10:03 | 51.29442 | 6.78308 | 202 ft | 131 kts | 234° |
| 2026-05-07 10:03 | 51.28925 | 6.77220 | 128 ft | 109 kts | 232° |
| 2026-05-07 10:04 | 51.28574 | 6.76484 | 127 ft | 59 kts | 233° |
| 2026-05-07 10:04 | 51.28400 | 6.76128 | 127 ft | 32 kts | 227° |
| 2026-05-07 10:04 | 51.28261 | 6.76041 | 124 ft | 18 kts | 171° |
| 2026-05-07 10:04 | 51.28195 | 6.76087 | 128 ft | 7 kts | 141° |
| 2026-05-07 10:05 | 51.28189 | 6.76144 | 125 ft | 5 kts | 72° |
| 2026-05-07 10:05 | 51.28196 | 6.76221 | 127 ft | 11 kts | 108° |
| 2026-05-07 10:05 | 51.28182 | 6.76304 | 127 ft | 7 kts | 80° |
| 2026-05-07 10:05 | 51.28203 | 6.76371 | 124 ft | 9 kts | 71° |
| 2026-05-07 10:06 | 51.28198 | 6.76476 | 125 ft | 12 kts | 96° |
| 2026-05-07 10:06 | 51.28193 | 6.76560 | 127 ft | 1 kts | 96° |
| 2026-05-07 10:06 | 51.28192 | 6.76561 | 127 ft | 0 kts | 96° |